Time;durP1;ratioP1;P1;durP2;ratioP2;P2;SDS_P1;SDS_P2;PMS_P1;PMS_P2;Temp;Humidity;BMP_temperature;BMP_pressure;BME280_temperature;BME280_humidity;BME280_pressure;Samples;Min_cycle;Max_cycle;Signal;HPM_P1;HPM_P2
2021/12/18 00:03:00;;;;;;;9.70;5.50;;;2.70;99.90;;;;;;10446966;28;20196;-78
2021/12/18 00:08:22;;;;;;;9.17;4.93;;;2.70;99.90;;;;;;10463008;28;20196;-79
2021/12/18 00:13:44;;;;;;;7.50;4.40;;;2.70;99.90;;;;;;10460755;28;20197;-78
2021/12/18 00:19:06;;;;;;;6.03;4.07;;;2.70;99.90;;;;;;10449019;28;20223;-78
2021/12/18 00:24:29;;;;;;;8.97;5.83;;;2.60;99.90;;;;;;10446674;28;20193;-78
2021/12/18 00:29:51;;;;;;;8.63;5.30;;;2.70;99.90;;;;;;10446347;28;20202;-78
2021/12/18 00:35:15;;;;;;;7.80;4.97;;;2.70;99.90;;;;;;10460124;28;20252;-78
2021/12/18 00:41:35;;;;;;;6.93;4.93;;;2.80;99.90;;;;;;10432574;28;20251;-78
2021/12/18 00:46:22;;;;;;;9.20;5.50;;;2.90;99.90;;;;;;10445677;28;20473;-79
2021/12/18 00:51:45;;;;;;;9.70;5.47;;;2.90;99.90;;;;;;10446200;28;20223;-78
2021/12/18 00:57:07;;;;;;;10.67;5.67;;;2.90;99.90;;;;;;10459586;28;20208;-78
2021/12/18 01:02:30;;;;;;;8.20;5.47;;;2.90;99.90;;;;;;10432106;28;20192;-80
2021/12/18 01:07:55;;;;;;;11.03;6.47;;;3.00;99.90;;;;;;10432405;28;20203;-80
2021/12/18 01:13:23;;;;;;;12.77;6.93;;;3.00;99.90;;;;;;10431999;28;20201;-78
2021/12/18 01:24:26;;;;;;;11.03;6.67;;;3.20;99.90;;;;;;10412629;28;20192;-78
2021/12/18 01:29:49;;;;;;;13.10;7.20;;;3.10;99.90;;;;;;10412920;28;20425;-79
2021/12/18 01:35:14;;;;;;;13.80;8.07;;;3.20;99.90;;;;;;10448032;28;20470;-77
2021/12/18 01:40:36;;;;;;;15.53;8.53;;;3.30;99.90;;;;;;10469251;28;20244;-78
2021/12/18 01:51:46;;;;;;;20.90;9.73;;;3.30;99.90;;;;;;10451798;28;20502;-78
2021/12/18 01:57:08;;;;;;;20.30;8.57;;;3.30;99.90;;;;;;10483190;28;20205;-78
2021/12/18 02:02:30;;;;;;;18.93;8.63;;;3.30;99.90;;;;;;10451828;28;20201;-80
2021/12/18 02:07:53;;;;;;;15.67;7.93;;;3.30;99.90;;;;;;10464639;28;20199;-78
2021/12/18 02:24:44;;;;;;;18.23;7.70;;;3.30;99.90;;;;;;10299079;28;20286;-78
2021/12/18 02:30:08;;;;;;;15.73;7.20;;;3.40;99.90;;;;;;10302065;28;20210;-78
2021/12/18 02:35:36;;;;;;;21.33;8.33;;;3.40;99.90;;;;;;10277493;28;20238;-78
2021/12/18 02:41:27;;;;;;;17.77;7.23;;;3.40;99.90;;;;;;10301731;28;20269;-80
2021/12/18 02:46:48;;;;;;;18.03;7.60;;;3.50;99.90;;;;;;10272210;28;20226;-78
2021/12/18 02:52:11;;;;;;;20.67;8.87;;;3.50;99.90;;;;;;10307607;28;20205;-80
2021/12/18 02:57:33;;;;;;;18.80;8.47;;;3.50;99.90;;;;;;10427313;28;20219;-79
2021/12/18 03:02:56;;;;;;;15.73;7.83;;;3.50;99.90;;;;;;10449388;28;20203;-78
2021/12/18 03:08:34;;;;;;;14.43;8.20;;;3.50;99.90;;;;;;10435724;28;20506;-79
2021/12/18 03:30:34;;;;;;;15.60;6.67;;;3.50;99.90;;;;;;10462154;28;20197;-78
2021/12/18 03:35:57;;;;;;;16.33;6.27;;;3.50;99.90;;;;;;10447397;28;20240;-80
2021/12/18 03:41:18;;;;;;;12.90;6.10;;;3.60;99.90;;;;;;10412296;28;20233;-82
2021/12/18 03:46:40;;;;;;;18.57;5.60;;;3.60;99.90;;;;;;10443166;28;20204;-80
2021/12/18 03:52:03;;;;;;;15.53;5.30;;;3.60;99.90;;;;;;10433591;28;20299;-79
2021/12/18 03:57:26;;;;;;;13.57;5.70;;;3.60;99.90;;;;;;10447187;28;20232;-80
2021/12/18 04:02:48;;;;;;;11.47;5.60;;;3.60;99.90;;;;;;10447055;28;20203;-81
2021/12/18 04:08:10;;;;;;;13.90;5.83;;;3.60;99.90;;;;;;10463812;28;20189;-80
2021/12/18 04:13:33;;;;;;;10.13;4.90;;;3.60;99.90;;;;;;10447138;28;20246;-80
2021/12/18 04:18:55;;;;;;;7.80;4.67;;;3.60;99.90;;;;;;10460546;28;20231;-79
2021/12/18 04:24:22;;;;;;;13.13;5.17;;;3.60;99.90;;;;;;10447232;28;20275;-80
2021/12/18 04:29:44;;;;;;;9.43;4.77;;;3.60;99.90;;;;;;10446839;28;20495;-79
2021/12/18 04:35:08;;;;;;;12.07;5.83;;;3.60;99.90;;;;;;10446454;28;20300;-80
2021/12/18 04:40:30;;;;;;;15.47;6.13;;;3.70;99.90;;;;;;10446333;28;20232;-79
2021/12/18 04:45:52;;;;;;;23.77;7.20;;;3.70;99.90;;;;;;10460239;28;20200;-78
2021/12/18 04:51:14;;;;;;;10.97;5.93;;;3.70;99.90;;;;;;10446264;28;20250;-80
2021/12/18 04:56:36;;;;;;;15.77;6.57;;;3.70;99.90;;;;;;10481711;28;20513;-79
2021/12/18 05:01:59;;;;;;;11.57;6.50;;;3.80;99.90;;;;;;10456986;28;20230;-79
2021/12/18 05:07:20;;;;;;;14.23;7.27;;;3.80;99.90;;;;;;10453608;28;20204;-80
2021/12/18 05:12:42;;;;;;;20.37;9.30;;;3.80;99.90;;;;;;10467609;28;20235;-80
2021/12/18 05:18:05;;;;;;;18.93;10.43;;;3.80;99.90;;;;;;10439790;28;20530;-79
2021/12/18 05:23:27;;;;;;;16.43;10.33;;;3.80;99.90;;;;;;10466656;28;20219;-78
2021/12/18 05:28:49;;;;;;;18.83;9.67;;;3.80;99.90;;;;;;10455212;28;20193;-80
2021/12/18 05:34:21;;;;;;;24.70;12.10;;;3.80;99.90;;;;;;10470964;28;20470;-82
2021/12/18 05:39:44;;;;;;;21.07;11.67;;;3.80;99.90;;;;;;10430419;28;20259;-80
2021/12/18 05:45:07;;;;;;;15.20;10.40;;;3.80;99.90;;;;;;10398366;28;20394;-79
2021/12/18 05:50:30;;;;;;;16.40;9.90;;;3.80;99.90;;;;;;10410882;28;20201;-80
2021/12/18 05:55:52;;;;;;;19.53;9.33;;;3.80;99.90;;;;;;10415925;28;20424;-79
2021/12/18 06:01:15;;;;;;;14.30;8.27;;;3.80;99.90;;;;;;10438073;28;20549;-78
2021/12/18 06:06:38;;;;;;;13.23;8.53;;;4.00;99.90;;;;;;10466853;28;20200;-80
2021/12/18 06:12:01;;;;;;;14.13;8.30;;;3.90;99.90;;;;;;10437937;28;20193;-80
2021/12/18 06:17:22;;;;;;;14.57;8.27;;;3.80;99.90;;;;;;10464837;28;20209;-79
2021/12/18 06:22:44;;;;;;;14.47;7.40;;;3.80;99.90;;;;;;10423440;28;20243;-80
2021/12/18 06:28:06;;;;;;;19.77;8.20;;;3.80;99.90;;;;;;10410387;28;20205;-80
2021/12/18 06:33:29;;;;;;;16.27;7.60;;;3.80;99.90;;;;;;10409490;28;20256;-80
2021/12/18 06:38:51;;;;;;;10.90;6.83;;;3.80;99.90;;;;;;10450340;28;20232;-80
2021/12/18 06:44:15;;;;;;;10.80;7.40;;;3.90;99.90;;;;;;10453393;28;20206;-78
2021/12/18 06:49:37;;;;;;;17.47;10.93;;;3.90;99.90;;;;;;10436271;28;20228;-81
2021/12/18 06:54:59;;;;;;;15.23;7.63;;;3.90;99.90;;;;;;10449375;28;20198;-80
2021/12/18 07:00:22;;;;;;;17.43;8.33;;;3.90;99.90;;;;;;10422371;28;20238;-80
2021/12/18 07:05:43;;;;;;;22.53;10.50;;;4.00;99.90;;;;;;10407912;28;20280;-78
2021/12/18 07:11:06;;;;;;;15.40;8.60;;;4.00;99.90;;;;;;10408121;28;20201;-78
2021/12/18 07:16:28;;;;;;;18.37;8.50;;;4.00;99.90;;;;;;10407582;28;20196;-78
2021/12/18 07:21:50;;;;;;;15.63;9.67;;;4.00;99.90;;;;;;10430409;28;20237;-80
2021/12/18 07:27:12;;;;;;;19.13;11.37;;;4.00;99.90;;;;;;10449011;28;20275;-78
2021/12/18 07:32:34;;;;;;;14.47;10.03;;;4.00;99.90;;;;;;10434329;28;20200;-78
2021/12/18 07:37:57;;;;;;;16.13;11.17;;;3.90;99.90;;;;;;10448358;28;20238;-78
2021/12/18 07:43:19;;;;;;;17.83;10.30;;;4.00;99.90;;;;;;10447955;28;20205;-80
2021/12/18 07:48:41;;;;;;;19.27;11.83;;;4.00;99.90;;;;;;10447332;28;20193;-79
2021/12/18 07:54:05;;;;;;;26.23;14.00;;;4.10;99.90;;;;;;10433285;28;20199;-78
2021/12/18 07:59:27;;;;;;;19.37;10.93;;;4.00;99.90;;;;;;10446981;28;20221;-78
2021/12/18 08:04:49;;;;;;;18.17;11.43;;;4.10;99.90;;;;;;10447341;28;20197;-80
2021/12/18 08:10:12;;;;;;;22.23;12.37;;;4.10;99.90;;;;;;10447045;28;20545;-77
2021/12/18 08:15:35;;;;;;;19.60;11.80;;;4.20;99.90;;;;;;10447035;28;20546;-78
2021/12/18 08:20:58;;;;;;;17.07;11.10;;;4.20;99.90;;;;;;10446521;28;20225;-79
2021/12/18 08:26:21;;;;;;;22.63;11.67;;;4.20;99.90;;;;;;10463620;28;20358;-80
2021/12/18 08:31:43;;;;;;;21.87;12.20;;;4.30;99.90;;;;;;10454956;28;20288;-79
2021/12/18 08:37:06;;;;;;;22.53;12.27;;;4.30;99.90;;;;;;10473476;28;20531;-79
2021/12/18 08:42:28;;;;;;;19.63;11.10;;;4.20;99.90;;;;;;10463633;28;20244;-79
2021/12/18 08:47:51;;;;;;;13.63;9.03;;;4.30;99.90;;;;;;10426187;28;20237;-79
2021/12/18 08:53:13;;;;;;;15.80;8.70;;;4.30;99.90;;;;;;10457195;28;20507;-79
2021/12/18 08:58:35;;;;;;;20.43;10.03;;;4.40;99.90;;;;;;10455113;28;20245;-83
2021/12/18 09:03:57;;;;;;;21.07;10.97;;;4.50;99.90;;;;;;10455210;28;20427;-83
2021/12/18 09:09:21;;;;;;;13.17;7.43;;;4.50;99.90;;;;;;10454481;28;20539;-82
2021/12/18 09:14:44;;;;;;;15.77;8.50;;;4.60;99.90;;;;;;10439908;28;20212;-80
2021/12/18 09:20:08;;;;;;;11.87;6.13;;;4.60;99.90;;;;;;10454037;28;20236;-78
2021/12/18 09:25:31;;;;;;;13.43;7.07;;;4.60;99.90;;;;;;10468363;28;20193;-80
2021/12/18 09:30:54;;;;;;;11.37;6.57;;;4.70;99.90;;;;;;10437301;28;20205;-79
2021/12/18 09:36:16;;;;;;;12.70;7.40;;;4.60;99.90;;;;;;10450431;28;20233;-81
2021/12/18 09:41:38;;;;;;;13.60;7.27;;;4.70;99.90;;;;;;10408265;28;20234;-80
2021/12/18 09:47:02;;;;;;;9.40;5.77;;;4.70;99.90;;;;;;10431047;28;20247;-80
2021/12/18 09:52:25;;;;;;;15.70;8.13;;;4.80;99.90;;;;;;10447159;28;20243;-81
2021/12/18 09:57:49;;;;;;;18.27;7.93;;;4.80;99.90;;;;;;10446836;28;20210;-86
2021/12/18 10:03:11;;;;;;;11.63;5.90;;;4.80;99.90;;;;;;10461179;28;20213;-82
2021/12/18 10:08:40;;;;;;;13.70;6.63;;;4.80;99.90;;;;;;10460455;28;20215;-80
2021/12/18 10:14:03;;;;;;;21.20;9.63;;;4.90;99.90;;;;;;10418990;28;20597;-81
2021/12/18 10:19:29;;;;;;;15.30;7.73;;;4.80;99.90;;;;;;10442971;28;20561;-85
2021/12/18 10:25:04;;;;;;;9.60;5.33;;;5.00;99.90;;;;;;10433659;28;20196;-81
2021/12/18 10:30:26;;;;;;;13.43;6.57;;;5.00;99.90;;;;;;10409623;28;20211;-85
2021/12/18 10:35:51;;;;;;;7.03;3.47;;;5.00;99.90;;;;;;10422047;28;20259;-82
2021/12/18 10:41:24;;;;;;;16.40;7.60;;;5.00;99.90;;;;;;10462690;28;20321;-82
2021/12/18 10:46:47;;;;;;;8.33;4.60;;;5.00;99.90;;;;;;10432282;28;20193;-86
2021/12/18 10:52:09;;;;;;;6.57;3.70;;;5.00;99.90;;;;;;10461842;28;20209;-83
2021/12/18 10:57:31;;;;;;;4.23;3.37;;;5.10;99.90;;;;;;10444860;28;20491;-82
2021/12/18 11:02:53;;;;;;;9.53;6.10;;;5.30;99.90;;;;;;10431409;28;20476;-80
2021/12/18 11:08:15;;;;;;;10.23;6.23;;;5.30;99.90;;;;;;10430547;28;20228;-82
2021/12/18 11:13:45;;;;;;;9.50;5.13;;;5.30;99.90;;;;;;10445144;28;20228;-82
2021/12/18 11:19:12;;;;;;;3.57;3.00;;;5.10;99.90;;;;;;10432226;28;20232;-81
2021/12/18 11:24:41;;;;;;;3.77;2.87;;;5.20;99.90;;;;;;10472493;28;20205;-85
2021/12/18 11:30:08;;;;;;;4.03;2.67;;;5.20;99.90;;;;;;10442634;28;20198;-83
2021/12/18 11:35:31;;;;;;;4.43;2.60;;;5.00;99.90;;;;;;10429386;28;20241;-81
2021/12/18 11:40:53;;;;;;;4.40;3.00;;;5.00;99.90;;;;;;10411085;28;20233;-81
2021/12/18 11:46:41;;;;;;;4.63;3.43;;;4.90;99.90;;;;;;10457414;28;20276;-81
2021/12/18 11:52:05;;;;;;;6.10;3.13;;;5.00;99.90;;;;;;10442279;28;20542;-81
2021/12/18 11:57:43;;;;;;;9.67;4.50;;;5.00;99.90;;;;;;10448925;28;20555;-83
2021/12/18 12:03:08;;;;;;;4.07;2.83;;;4.90;99.90;;;;;;10443040;28;20488;-80
2021/12/18 12:08:42;;;;;;;6.20;3.87;;;5.00;99.90;;;;;;10440948;28;20538;-80
2021/12/18 12:14:16;;;;;;;4.33;3.10;;;5.20;99.90;;;;;;10445312;28;20194;-81
2021/12/18 12:19:48;;;;;;;9.23;6.33;;;5.40;99.90;;;;;;10453187;28;20226;-79
2021/12/18 12:25:14;;;;;;;5.90;3.70;;;5.50;99.90;;;;;;10426936;28;20197;-83
2021/12/18 12:30:40;;;;;;;5.33;3.93;;;5.50;99.90;;;;;;10419760;28;20440;-78
2021/12/18 12:36:25;;;;;;;5.83;4.20;;;5.50;99.90;;;;;;10433120;28;20246;-78
2021/12/18 12:41:52;;;;;;;8.23;4.57;;;5.50;99.90;;;;;;10436578;28;20226;-81
2021/12/18 12:47:23;;;;;;;4.43;3.27;;;5.70;99.90;;;;;;10453602;28;20527;-78
2021/12/18 12:52:55;;;;;;;4.50;2.93;;;5.80;99.90;;;;;;10423830;28;20195;-79
2021/12/18 12:58:25;;;;;;;3.53;2.67;;;5.70;99.90;;;;;;10418254;28;20199;-79
2021/12/18 13:03:48;;;;;;;14.80;4.50;;;5.40;99.90;;;;;;10422607;28;20213;-80
2021/12/18 13:09:11;;;;;;;16.40;4.00;;;5.30;99.90;;;;;;10428886;28;20190;-82
2021/12/18 13:14:37;;;;;;;13.60;4.53;;;5.30;99.90;;;;;;10428029;28;20274;-82
2021/12/18 13:20:01;;;;;;;12.77;4.10;;;5.20;99.90;;;;;;10441943;28;20227;-79
2021/12/18 13:25:23;;;;;;;81.88;11.52;;;5.20;99.90;;;;;;10431710;28;20785;-85
2021/12/18 13:30:48;;;;;;;6.43;3.80;;;5.20;99.90;;;;;;10434702;28;20439;-82
2021/12/18 13:36:11;;;;;;;5.03;2.67;;;5.30;99.90;;;;;;10437616;28;20234;-79
2021/12/18 13:41:33;;;;;;;8.97;3.10;;;5.20;99.90;;;;;;10445612;28;20235;-81
2021/12/18 13:46:55;;;;;;;6.40;3.43;;;5.30;99.90;;;;;;10443750;28;20515;-80
2021/12/18 13:52:35;;;;;;;7.47;2.00;;;5.30;99.90;;;;;;10439429;28;20237;-82
2021/12/18 13:58:03;;;;;;;6.10;3.07;;;5.30;99.90;;;;;;10450687;28;20204;-79
2021/12/18 14:03:36;;;;;;;7.77;3.90;;;5.30;99.90;;;;;;10425433;28;20210;-78
2021/12/18 14:09:03;;;;;;;2.53;2.00;;;5.30;99.90;;;;;;10428690;28;20201;-79
2021/12/18 14:14:38;;;;;;;5.73;4.70;;;5.30;99.90;;;;;;10450442;28;20206;-79
2021/12/18 14:20:05;;;;;;;4.67;4.17;;;5.30;99.90;;;;;;10450493;28;20550;-80
2021/12/18 14:25:32;;;;;;;8.60;4.43;;;5.30;99.90;;;;;;10448217;28;20556;-78
2021/12/18 14:30:54;;;;;;;8.37;4.40;;;5.30;99.90;;;;;;10446527;28;20278;-79
2021/12/18 14:36:16;;;;;;;9.37;5.57;;;5.20;99.90;;;;;;10447774;28;20425;-79
2021/12/18 14:41:39;;;;;;;6.17;4.50;;;5.20;99.90;;;;;;10450198;28;20229;-81
2021/12/18 14:47:06;;;;;;;6.33;3.57;;;5.10;99.90;;;;;;10452705;28;20508;-79
2021/12/18 14:52:29;;;;;;;5.37;3.40;;;5.00;99.90;;;;;;10450281;28;20198;-80
2021/12/18 14:57:58;;;;;;;8.90;5.90;;;4.90;99.90;;;;;;10435700;28;20197;-78
2021/12/18 15:03:28;;;;;;;8.63;5.70;;;4.90;99.90;;;;;;10448846;28;20229;-79
2021/12/18 15:09:13;;;;;;;3.43;2.50;;;4.90;99.90;;;;;;10449489;28;20202;-81
2021/12/18 15:14:36;;;;;;;2.87;1.87;;;4.80;99.90;;;;;;10451463;28;20498;-78
2021/12/18 15:20:03;;;;;;;5.47;2.37;;;4.80;99.90;;;;;;10465902;28;20236;-79
2021/12/18 15:25:25;;;;;;;6.13;2.80;;;4.70;99.90;;;;;;10448190;28;20197;-79
2021/12/18 15:30:48;;;;;;;4.33;2.83;;;4.60;99.90;;;;;;10463986;28;20202;-81
2021/12/18 15:36:10;;;;;;;5.40;3.60;;;4.60;99.90;;;;;;10457080;28;20238;-79
2021/12/18 15:41:32;;;;;;;13.63;4.53;;;4.70;99.90;;;;;;10406822;28;20230;-79
2021/12/18 15:46:55;;;;;;;4.57;3.50;;;4.70;99.90;;;;;;10429346;28;20186;-79
2021/12/18 15:52:17;;;;;;;4.53;3.13;;;4.60;99.90;;;;;;10430442;28;20198;-81
2021/12/18 15:57:39;;;;;;;7.00;3.30;;;4.70;99.90;;;;;;10427727;28;20193;-81
2021/12/18 16:03:01;;;;;;;6.77;4.63;;;4.70;99.90;;;;;;10429283;28;20227;-80
2021/12/18 16:08:24;;;;;;;7.13;4.63;;;4.70;99.90;;;;;;10416229;28;20194;-80
2021/12/18 16:13:46;;;;;;;6.60;4.40;;;4.70;99.90;;;;;;10417804;28;20199;-80
2021/12/18 16:19:09;;;;;;;7.37;4.87;;;4.60;99.90;;;;;;10445690;28;20216;-79
2021/12/18 16:24:30;;;;;;;5.10;3.90;;;4.60;99.90;;;;;;10413238;28;20190;-79
2021/12/18 16:29:52;;;;;;;6.50;3.70;;;4.60;99.90;;;;;;10430840;28;20277;-79
2021/12/18 16:35:16;;;;;;;7.63;4.73;;;4.70;99.90;;;;;;10436709;28;20241;-80
2021/12/18 16:40:40;;;;;;;6.43;3.60;;;4.70;99.90;;;;;;10453654;28;20240;-81
2021/12/18 16:46:02;;;;;;;29.10;15.63;;;4.70;99.90;;;;;;10407115;28;20196;-82
2021/12/18 16:51:24;;;;;;;54.13;25.43;;;4.70;99.90;;;;;;10439175;28;20268;-80
2021/12/18 16:56:46;;;;;;;62.27;34.53;;;4.70;99.90;;;;;;10437918;28;20190;-82
2021/12/18 17:02:08;;;;;;;15.83;8.87;;;4.60;99.90;;;;;;10419171;28;20530;-80
2021/12/18 17:07:32;;;;;;;19.40;13.30;;;4.60;99.90;;;;;;10436373;28;20201;-81
2021/12/18 17:12:57;;;;;;;7.87;5.27;;;4.60;99.90;;;;;;10428523;28;20194;-80
2021/12/18 17:18:19;;;;;;;3.03;2.10;;;4.60;99.90;;;;;;10445853;28;20387;-81
2021/12/18 17:23:42;;;;;;;28.13;5.17;;;4.70;99.90;;;;;;10422157;28;20221;-80
2021/12/18 17:29:05;;;;;;;5.97;3.77;;;4.80;99.90;;;;;;10435315;28;20195;-80
2021/12/18 17:34:27;;;;;;;5.03;3.47;;;4.70;99.90;;;;;;10436972;28;20465;-80
2021/12/18 17:39:51;;;;;;;5.07;4.27;;;4.60;99.90;;;;;;10449780;28;20292;-79
2021/12/18 17:45:13;;;;;;;2.73;2.33;;;4.60;99.90;;;;;;10466184;28;20197;-80
2021/12/18 17:50:36;;;;;;;9.57;3.00;;;4.60;99.90;;;;;;10466994;28;20247;-80
2021/12/18 17:55:58;;;;;;;4.57;2.73;;;4.50;99.90;;;;;;10448488;28;20268;-79
2021/12/18 18:01:24;;;;;;;3.70;2.50;;;4.50;99.90;;;;;;10447963;28;20304;-80
2021/12/18 18:06:46;;;;;;;3.10;2.00;;;4.50;99.90;;;;;;10450544;28;20227;-80
2021/12/18 18:12:10;;;;;;;2.83;2.27;;;4.50;99.90;;;;;;10450917;28;20198;-78
2021/12/18 18:17:34;;;;;;;3.87;2.53;;;4.40;99.90;;;;;;10454055;28;20424;-80
2021/12/18 18:22:56;;;;;;;2.17;1.97;;;4.40;99.90;;;;;;10450378;28;20305;-80
2021/12/18 18:28:19;;;;;;;4.57;3.20;;;4.40;99.90;;;;;;10450399;28;20279;-78
2021/12/18 18:33:41;;;;;;;4.47;3.17;;;4.40;99.90;;;;;;10449281;28;20228;-80
2021/12/18 18:39:03;;;;;;;5.67;2.90;;;4.50;99.90;;;;;;10457191;28;20503;-80
2021/12/18 18:44:28;;;;;;;6.30;4.20;;;4.40;99.90;;;;;;10445631;28;20205;-79
2021/12/18 18:49:50;;;;;;;4.37;2.87;;;4.40;99.90;;;;;;10460449;28;20198;-80
2021/12/18 18:55:12;;;;;;;8.67;3.40;;;4.40;99.90;;;;;;10472138;28;20207;-79
2021/12/18 19:00:34;;;;;;;3.83;2.50;;;4.40;99.90;;;;;;10456077;28;20216;-80
2021/12/18 19:05:57;;;;;;;3.80;2.40;;;4.40;99.90;;;;;;10459348;28;20202;-80
2021/12/18 19:11:20;;;;;;;3.17;1.83;;;4.40;99.90;;;;;;10465605;28;20387;-80
2021/12/18 19:16:43;;;;;;;2.80;2.23;;;4.40;99.90;;;;;;10434650;28;20516;-80
2021/12/18 19:22:06;;;;;;;2.60;1.77;;;4.40;99.90;;;;;;10462035;28;20220;-80
2021/12/18 19:27:30;;;;;;;3.73;2.40;;;4.40;99.90;;;;;;10462215;28;20202;-80
2021/12/18 19:32:53;;;;;;;3.57;2.63;;;4.40;99.90;;;;;;10463924;28;20201;-80
2021/12/18 19:38:17;;;;;;;7.13;2.90;;;4.30;99.90;;;;;;10447613;28;20244;-79
2021/12/18 19:43:39;;;;;;;8.87;3.73;;;4.30;99.90;;;;;;10447949;28;20314;-79
2021/12/18 19:49:05;;;;;;;4.37;3.00;;;4.40;99.90;;;;;;10447758;28;20269;-80
2021/12/18 19:54:27;;;;;;;6.70;2.27;;;4.50;99.90;;;;;;10478688;28;20189;-80
2021/12/18 19:59:50;;;;;;;2.47;2.00;;;4.40;99.90;;;;;;10446814;28;20213;-79
2021/12/18 20:05:26;;;;;;;2.50;1.90;;;4.40;99.90;;;;;;10433422;28;20534;-80
2021/12/18 20:10:48;;;;;;;2.27;1.70;;;4.40;99.90;;;;;;10446627;28;20202;-79
2021/12/18 20:16:10;;;;;;;5.03;2.27;;;4.50;99.90;;;;;;10463277;28;20189;-80
2021/12/18 20:21:33;;;;;;;2.40;2.00;;;4.50;99.90;;;;;;10460048;28;20225;-79
2021/12/18 20:27:01;;;;;;;1.63;1.47;;;4.50;99.90;;;;;;10445611;28;20230;-80
2021/12/18 20:32:24;;;;;;;2.47;1.80;;;4.60;99.90;;;;;;10462447;28;20202;-79
2021/12/18 20:37:50;;;;;;;2.80;1.77;;;4.60;99.90;;;;;;10446290;28;20235;-80
2021/12/18 20:43:12;;;;;;;3.40;2.30;;;4.50;99.90;;;;;;10446379;28;20553;-80
2021/12/18 20:48:38;;;;;;;3.10;1.73;;;4.60;99.90;;;;;;10445881;28;20427;-80
2021/12/18 20:54:01;;;;;;;2.10;1.90;;;4.50;99.90;;;;;;10449654;28;20200;-80
2021/12/18 20:59:24;;;;;;;2.60;2.00;;;4.60;99.90;;;;;;10411910;28;20205;-79
2021/12/18 21:04:45;;;;;;;2.77;2.03;;;4.60;99.90;;;;;;10461974;28;20201;-80
2021/12/18 21:10:08;;;;;;;1.80;1.70;;;4.60;99.90;;;;;;10445506;28;20198;-79
2021/12/18 21:15:31;;;;;;;2.10;1.60;;;4.60;99.90;;;;;;10448622;28;20267;-80
2021/12/18 21:20:58;;;;;;;1.50;1.40;;;4.60;99.90;;;;;;10458888;28;20596;-79
2021/12/18 21:26:21;;;;;;;3.37;2.30;;;4.60;99.90;;;;;;10445132;28;20221;-78
2021/12/18 21:31:43;;;;;;;1.90;1.50;;;4.60;99.90;;;;;;10444955;28;20220;-80
2021/12/18 21:37:05;;;;;;;1.83;1.40;;;4.60;99.90;;;;;;10425142;28;20433;-80
2021/12/18 21:42:28;;;;;;;1.77;1.60;;;4.60;99.90;;;;;;10414217;28;20482;-79
2021/12/18 21:47:51;;;;;;;3.40;1.83;;;4.60;99.90;;;;;;10410927;28;20278;-80
2021/12/18 21:53:14;;;;;;;1.93;1.80;;;4.60;99.90;;;;;;10410811;28;20497;-80
2021/12/18 21:58:36;;;;;;;3.00;2.33;;;4.60;99.90;;;;;;10437875;28;20232;-80
2021/12/18 22:04:02;;;;;;;3.13;2.20;;;4.60;99.90;;;;;;10437673;28;20221;-80
2021/12/18 22:09:24;;;;;;;3.70;2.87;;;4.70;99.90;;;;;;10468314;28;20198;-80
2021/12/18 22:14:46;;;;;;;4.00;2.60;;;4.70;99.90;;;;;;10450439;28;20210;-79
2021/12/18 22:20:09;;;;;;;2.13;1.77;;;4.70;99.90;;;;;;10482577;28;20209;-79
2021/12/18 22:25:35;;;;;;;3.03;2.13;;;4.70;99.90;;;;;;10436825;28;20211;-80
2021/12/18 22:30:57;;;;;;;1.80;1.70;;;4.70;99.90;;;;;;10449949;28;20226;-79
2021/12/18 22:36:19;;;;;;;3.70;2.30;;;4.70;99.90;;;;;;10449900;28;20564;-80
2021/12/18 22:41:42;;;;;;;3.43;2.20;;;4.70;99.90;;;;;;10450108;28;20223;-80
2021/12/18 22:47:05;;;;;;;2.80;2.37;;;4.80;99.90;;;;;;10449423;28;20199;-80
2021/12/18 22:52:27;;;;;;;3.80;2.20;;;4.90;99.90;;;;;;10452077;28;20552;-79
2021/12/18 22:57:49;;;;;;;5.60;3.70;;;4.90;99.90;;;;;;10449407;28;20512;-80
2021/12/18 23:03:12;;;;;;;5.80;3.60;;;5.00;99.90;;;;;;10435477;28;20224;-79
2021/12/18 23:08:36;;;;;;;8.60;4.47;;;5.00;99.90;;;;;;10463055;28;20202;-79
2021/12/18 23:24:49;;;;;;;13.63;7.30;;;5.10;99.90;;;;;;10448383;28;20497;-79
2021/12/18 23:30:11;;;;;;;9.90;6.93;;;5.10;99.90;;;;;;10447918;28;20380;-80
2021/12/18 23:35:34;;;;;;;14.50;6.40;;;5.10;99.90;;;;;;10447585;28;20247;-80
2021/12/18 23:41:00;;;;;;;9.67;5.70;;;5.20;99.90;;;;;;10464365;28;20232;-77
2021/12/18 23:46:33;;;;;;;11.30;6.00;;;5.10;99.90;;;;;;10447668;28;20207;-80
2021/12/18 23:51:55;;;;;;;13.77;7.00;;;5.10;99.90;;;;;;10447416;28;20251;-79
2021/12/18 23:57:17;;;;;;;9.70;6.10;;;5.20;99.90;;;;;;10463698;28;20511;-77
